Time,TemperatureF,DewpointF,PressureIn,WindDirection,WindDirectionDegrees,WindSpeedMPH,WindSpeedGustMPH,Humidity,HourlyPrecipIn,Conditions,Clouds,dailyrainin,SoftwareType,DateUTC
2013-06-29 00:01:00,65.7,61.4,29.76,North,355,6.9,6.9,86,0.00,RA,,0.00,WeatherDisplay:10.37,2013-06-29 05:01:00,
2013-06-29 00:06:00,65.6,61.3,29.76,NNE,18,5.8,5.8,86,0.00,RA,,0.00,WeatherDisplay:10.37,2013-06-29 05:06:00,
2013-06-29 00:11:00,65.4,61.1,29.76,North,355,5.8,5.8,86,0.00,CLR,,0.00,WeatherDisplay:10.37,2013-06-29 05:11:00,
2013-06-29 00:16:00,65.4,61.1,29.77,North,5,5.8,5.8,86,0.00,CLR,,0.00,WeatherDisplay:10.37,2013-06-29 05:16:00,
2013-06-29 00:21:00,65.4,61.1,29.76,North,355,5.8,5.8,86,0.00,CLR,,0.00,WeatherDisplay:10.37,2013-06-29 05:21:00,
2013-06-29 00:26:00,65.3,61.0,29.77,North,355,3.5,0.0,86,0.00,CLR,,0.00,WeatherDisplay:10.37,2013-06-29 05:26:00,
2013-06-29 00:31:00,65.3,61.0,29.77,NW,316,3.5,3.5,86,0.00,CLR,,0.00,WeatherDisplay:10.37,2013-06-29 05:31:00,
2013-06-29 00:36:00,65.2,60.9,29.77,NNW,336,6.9,6.9,86,0.00,CLR,,0.00,WeatherDisplay:10.37,2013-06-29 05:36:00,
2013-06-29 00:41:00,65.2,60.6,29.77,NNW,334,3.5,3.5,85,0.00,CLR,,0.00,WeatherDisplay:10.37,2013-06-29 05:41:00,
2013-06-29 00:46:00,65.2,60.6,29.77,NW,309,3.5,0.0,85,0.00,CLR,,0.00,WeatherDisplay:10.37,2013-06-29 05:46:00,
2013-06-29 00:51:00,65.1,60.5,29.77,NNW,340,4.6,4.6,85,0.00,CLR,,0.00,WeatherDisplay:10.37,2013-06-29 05:51:00,
2013-06-29 00:56:00,65.0,60.4,29.76,NNW,341,5.8,5.8,85,0.00,CLR,,0.00,WeatherDisplay:10.37,2013-06-29 05:56:00,
2013-06-29 01:01:00,64.9,60.3,29.76,NW,326,5.8,5.8,85,0.00,CLR,,0.00,WeatherDisplay:10.37,2013-06-29 06:01:00,
2013-06-29 01:06:00,64.8,60.2,29.76,NNW,329,3.5,3.5,85,0.00,CLR,,0.00,WeatherDisplay:10.37,2013-06-29 06:06:00,
2013-06-29 01:11:00,64.8,60.2,29.76,North,350,0.0,0.0,85,0.00,CLR,,0.00,WeatherDisplay:10.37,2013-06-29 06:11:00,
2013-06-29 01:16:00,64.7,60.1,29.76,NNW,330,3.5,3.5,85,0.00,CLR,,0.00,WeatherDisplay:10.37,2013-06-29 06:16:00,
2013-06-29 01:21:00,64.6,60.3,29.76,NNW,341,0.0,0.0,86,0.00,CLR,,0.00,WeatherDisplay:10.37,2013-06-29 06:21:00,
2013-06-29 01:26:00,64.5,60.2,29.76,NNW,345,3.5,3.5,86,0.00,CLR,,0.00,WeatherDisplay:10.37,2013-06-29 06:26:00,
2013-06-29 01:31:00,64.5,60.2,29.76,North,360,0.0,0.0,86,0.00,CLR,,0.00,WeatherDisplay:10.37,2013-06-29 06:31:00,
2013-06-29 01:36:00,64.4,60.1,29.75,NNW,348,0.0,0.0,86,0.00,CLR,,0.00,WeatherDisplay:10.37,2013-06-29 06:36:00,
2013-06-29 01:41:00,64.4,60.1,29.75,NNW,339,0.0,0.0,86,0.00,CLR,,0.00,WeatherDisplay:10.37,2013-06-29 06:41:00,
2013-06-29 01:46:00,64.4,60.4,29.75,NNW,345,3.5,0.0,87,0.00,CLR,,0.00,WeatherDisplay:10.37,2013-06-29 06:46:00,
2013-06-29 01:51:00,64.4,60.4,29.75,NNW,343,3.5,0.0,87,0.00,CLR,,0.00,WeatherDisplay:10.37,2013-06-29 06:51:00,
2013-06-29 01:56:00,64.4,60.4,29.75,NNW,342,0.0,0.0,87,0.00,CLR,,0.00,WeatherDisplay:10.37,2013-06-29 06:56:00,
2013-06-29 02:01:00,64.3,60.3,29.75,NNW,348,3.5,3.5,87,0.00,CLR,,0.00,WeatherDisplay:10.37,2013-06-29 07:01:00,
2013-06-29 02:06:00,64.3,60.3,29.75,North,349,0.0,0.0,87,0.00,CLR,,0.00,WeatherDisplay:10.37,2013-06-29 07:06:00,
2013-06-29 02:11:00,64.3,60.7,29.75,NW,326,3.5,0.0,88,0.00,CLR,,0.00,WeatherDisplay:10.37,2013-06-29 07:11:00,
2013-06-29 02:16:00,64.2,60.6,29.75,North,5,1.2,1.2,88,0.00,CLR,,0.00,WeatherDisplay:10.37,2013-06-29 07:16:00,
2013-06-29 02:21:00,64.2,60.6,29.76,NW,317,4.6,4.6,88,0.00,CLR,,0.00,WeatherDisplay:10.37,2013-06-29 07:21:00,
2013-06-29 02:26:00,64.2,60.2,29.76,NNW,331,5.8,5.8,87,0.00,CLR,,0.00,WeatherDisplay:10.37,2013-06-29 07:26:00,
2013-06-29 02:31:00,64.3,60.3,29.75,NNW,342,5.8,5.8,87,0.00,CLR,,0.00,WeatherDisplay:10.37,2013-06-29 07:31:00,
2013-06-29 02:36:00,64.3,60.3,29.75,North,355,5.8,5.8,87,0.00,CLR,,0.00,WeatherDisplay:10.37,2013-06-29 07:36:00,
2013-06-29 02:41:00,64.4,60.4,29.75,North,5,6.9,6.9,87,0.00,CLR,,0.00,WeatherDisplay:10.37,2013-06-29 07:41:00,
2013-06-29 02:46:00,64.4,60.4,29.75,NNW,348,5.8,5.8,87,0.00,CLR,,0.00,WeatherDisplay:10.37,2013-06-29 07:46:00,
2013-06-29 02:51:00,64.5,60.2,29.75,NNW,338,3.5,0.0,86,0.00,CLR,,0.00,WeatherDisplay:10.37,2013-06-29 07:51:00,
2013-06-29 02:56:00,64.5,60.2,29.75,North,355,1.2,1.2,86,0.00,CLR,,0.00,WeatherDisplay:10.37,2013-06-29 07:56:00,
2013-06-29 03:01:00,64.4,60.1,29.75,NNW,330,6.9,6.9,86,0.00,CLR,,0.00,WeatherDisplay:10.37,2013-06-29 08:01:00,
2013-06-29 03:06:00,64.5,60.2,29.75,NNW,338,3.5,0.0,86,0.00,CLR,,0.00,WeatherDisplay:10.37,2013-06-29 08:06:00,
2013-06-29 03:12:00,64.5,60.5,29.75,WNW,300,5.8,5.8,87,0.00,CLR,,0.00,WeatherDisplay:10.37,2013-06-29 08:12:00,
2013-06-29 03:17:00,64.6,60.6,29.74,NW,318,5.8,5.8,87,0.01,RA,,0.01,WeatherDisplay:10.37,2013-06-29 08:17:00,
2013-06-29 03:22:00,64.6,60.6,29.74,WNW,296,4.6,4.6,87,0.01,RA,,0.01,WeatherDisplay:10.37,2013-06-29 08:22:00,
2013-06-29 03:27:00,64.6,60.6,29.74,WNW,302,3.5,3.5,87,0.01,,,0.01,WeatherDisplay:10.37,2013-06-29 08:27:00,
2013-06-29 03:32:00,64.6,60.6,29.74,WNW,302,1.2,0.0,87,0.01,CLR,,0.01,WeatherDisplay:10.37,2013-06-29 08:32:00,
2013-06-29 03:37:00,64.6,61.0,29.74,WNW,302,3.5,3.5,88,0.01,CLR,,0.01,WeatherDisplay:10.37,2013-06-29 08:37:00,
2013-06-29 03:42:00,64.5,60.9,29.74,NW,307,3.5,3.5,88,0.01,CLR,,0.01,WeatherDisplay:10.37,2013-06-29 08:42:00,
2013-06-29 03:47:00,64.5,60.9,29.74,NW,310,4.6,4.6,88,0.01,CLR,,0.01,WeatherDisplay:10.37,2013-06-29 08:47:00,
2013-06-29 03:52:00,64.5,60.9,29.74,WNW,297,4.6,4.6,88,0.01,CLR,,0.01,WeatherDisplay:10.37,2013-06-29 08:52:00,
2013-06-29 03:57:00,64.4,60.8,29.74,NW,314,11.5,11.5,88,0.01,CLR,,0.01,WeatherDisplay:10.37,2013-06-29 08:57:00,
2013-06-29 04:02:00,64.5,60.9,29.74,North,360,9.2,9.2,88,0.01,CLR,,0.01,WeatherDisplay:10.37,2013-06-29 09:02:00,
2013-06-29 04:07:00,64.5,60.9,29.74,WNW,296,9.2,9.2,88,0.01,CLR,,0.01,WeatherDisplay:10.37,2013-06-29 09:07:00,
2013-06-29 04:12:00,64.6,60.6,29.74,NW,319,5.8,5.8,87,0.01,CLR,,0.01,WeatherDisplay:10.37,2013-06-29 09:12:00,
2013-06-29 04:17:00,64.7,61.1,29.74,NW,304,0.0,0.0,88,0.00,CLR,,0.01,WeatherDisplay:10.37,2013-06-29 09:17:00,
2013-06-29 04:22:00,64.6,61.0,29.74,NNW,338,9.2,9.2,88,0.00,CLR,,0.01,WeatherDisplay:10.37,2013-06-29 09:22:00,
2013-06-29 04:27:00,64.4,60.8,29.74,NNW,341,3.5,3.5,88,0.00,CLR,,0.01,WeatherDisplay:10.37,2013-06-29 09:27:00,
2013-06-29 04:32:00,64.4,60.8,29.74,NE,37,1.2,1.2,88,0.00,CLR,,0.01,WeatherDisplay:10.37,2013-06-29 09:32:00,
2013-06-29 04:37:00,63.7,60.1,29.74,NNE,13,3.5,3.5,88,0.02,RA,,0.03,WeatherDisplay:10.37,2013-06-29 09:37:00,
2013-06-29 04:42:00,63.2,59.6,29.74,NE,55,3.5,3.5,88,0.04,RA,,0.05,WeatherDisplay:10.37,2013-06-29 09:42:00,
2013-06-29 04:47:00,62.8,59.5,29.74,East,92,4.6,4.6,89,0.06,RA,,0.07,WeatherDisplay:10.37,2013-06-29 09:47:00,
2013-06-29 04:52:00,62.3,59.0,29.75,North,11,3.5,3.5,89,0.06,RA,,0.07,WeatherDisplay:10.37,2013-06-29 09:52:00,
2013-06-29 04:57:00,62.2,59.2,29.75,NNE,17,2.3,2.3,90,0.06,CLR,,0.07,WeatherDisplay:10.37,2013-06-29 09:57:00,
2013-06-29 05:02:00,62.1,59.4,29.75,NE,42,3.5,3.5,91,0.07,RA,,0.08,WeatherDisplay:10.37,2013-06-29 10:02:00,
2013-06-29 05:07:00,62.0,59.3,29.75,NE,46,2.3,2.3,91,0.07,RA,,0.08,WeatherDisplay:10.37,2013-06-29 10:07:00,
2013-06-29 05:12:00,61.9,59.2,29.75,North,349,0.0,0.0,91,0.07,,,0.08,WeatherDisplay:10.37,2013-06-29 10:12:00,
2013-06-29 05:17:00,61.9,59.2,29.75,North,355,2.3,2.3,91,0.07,CLR,,0.08,WeatherDisplay:10.37,2013-06-29 10:17:00,
2013-06-29 05:22:00,61.9,59.2,29.76,NNE,21,3.5,3.5,91,0.08,RA,,0.09,WeatherDisplay:10.37,2013-06-29 10:22:00,
2013-06-29 05:27:00,61.8,59.1,29.76,North,9,3.5,3.5,91,0.09,RA,,0.10,WeatherDisplay:10.37,2013-06-29 10:27:00,
2013-06-29 05:32:00,61.9,59.5,29.76,North,5,2.0,2.0,92,0.09,RA,,0.10,WeatherDisplay:10.37,2013-06-29 10:32:00,
2013-06-29 05:37:00,61.9,59.5,29.76,North,10,0.0,0.0,92,0.08,RA,,0.11,WeatherDisplay:10.37,2013-06-29 10:37:00,
2013-06-29 05:42:00,61.9,59.5,29.77,NNE,22,0.0,0.0,92,0.07,RA,,0.12,WeatherDisplay:10.37,2013-06-29 10:42:00,
2013-06-29 05:47:00,61.8,59.5,29.77,ENE,57,9.2,9.2,92,0.06,RA,,0.13,WeatherDisplay:10.37,2013-06-29 10:47:00,
2013-06-29 05:52:00,61.7,59.4,29.77,ENE,63,1.2,0.0,92,0.06,RA,,0.13,WeatherDisplay:10.37,2013-06-29 10:52:00,
2013-06-29 05:57:00,61.7,59.4,29.77,NNE,26,5.8,5.8,92,0.07,RA,,0.14,WeatherDisplay:10.37,2013-06-29 10:57:00,
2013-06-29 06:02:00,61.7,59.4,29.77,NE,34,6.9,6.9,92,0.07,RA,,0.15,WeatherDisplay:10.37,2013-06-29 11:02:00,
2013-06-29 06:07:00,61.6,59.3,29.77,ENE,57,3.5,3.5,92,0.08,RA,,0.16,WeatherDisplay:10.37,2013-06-29 11:07:00,
2013-06-29 06:12:00,61.5,59.2,29.78,North,5,6.0,6.0,92,0.09,RA,,0.17,WeatherDisplay:10.37,2013-06-29 11:12:00,
2013-06-29 06:17:00,61.5,59.2,29.78,NNE,12,4.6,4.6,92,0.09,RA,,0.18,WeatherDisplay:10.37,2013-06-29 11:17:00,
2013-06-29 06:22:00,61.4,59.1,29.78,North,355,3.5,3.5,92,0.09,RA,,0.18,WeatherDisplay:10.37,2013-06-29 11:22:00,
2013-06-29 06:27:00,61.3,59.0,29.78,North,351,3.5,3.5,92,0.08,RA,,0.18,WeatherDisplay:10.37,2013-06-29 11:27:00,
2013-06-29 06:32:00,61.4,59.1,29.79,NE,34,3.5,0.0,92,0.08,CLR,,0.18,WeatherDisplay:10.37,2013-06-29 11:32:00,
2013-06-29 06:37:00,61.4,59.1,29.79,NE,55,0.0,0.0,92,0.07,CLR,,0.18,WeatherDisplay:10.37,2013-06-29 11:37:00,
2013-06-29 06:42:00,61.4,59.1,29.79,North,355,3.5,3.5,92,0.06,CLR,,0.18,WeatherDisplay:10.37,2013-06-29 11:42:00,
2013-06-29 06:47:00,61.5,59.2,29.79,NE,44,3.5,0.0,92,0.05,CLR,,0.18,WeatherDisplay:10.37,2013-06-29 11:47:00,
2013-06-29 06:52:00,61.4,59.1,29.79,North,355,6.9,6.9,92,0.05,CLR,,0.18,WeatherDisplay:10.37,2013-06-29 11:52:00,
2013-06-29 06:57:00,61.4,59.1,29.79,North,350,3.5,3.5,92,0.04,CLR,,0.18,WeatherDisplay:10.37,2013-06-29 11:57:00,
2013-06-29 07:02:00,61.4,59.1,29.79,North,10,3.5,3.5,92,0.03,CLR,,0.18,WeatherDisplay:10.37,2013-06-29 12:02:00,
2013-06-29 07:07:00,61.4,59.1,29.80,North,9,3.5,3.5,92,0.02,CLR,,0.18,WeatherDisplay:10.37,2013-06-29 12:07:00,
2013-06-29 07:12:00,61.5,59.2,29.80,NNW,340,4.6,4.6,92,0.01,CLR,,0.18,WeatherDisplay:10.37,2013-06-29 12:12:00,
2013-06-29 07:17:00,61.5,59.2,29.80,North,5,10.4,10.4,92,0.01,CLR,,0.18,WeatherDisplay:10.37,2013-06-29 12:17:00,
2013-06-29 07:23:00,61.5,59.2,29.80,NNW,346,4.6,4.6,92,0.00,CLR,,0.18,WeatherDisplay:10.37,2013-06-29 12:23:00,
2013-06-29 07:28:00,61.6,59.3,29.80,North,355,2.3,3.8,92,0.00,CLR,,0.18,WeatherDisplay:10.37,2013-06-29 12:28:00,
2013-06-29 07:33:00,61.5,59.2,29.81,NW,323,5.8,5.8,92,0.00,CLR,,0.18,WeatherDisplay:10.37,2013-06-29 12:33:00,
2013-06-29 07:38:00,61.5,59.2,29.81,NNE,22,5.8,5.8,92,0.00,CLR,,0.18,WeatherDisplay:10.37,2013-06-29 12:38:00,
2013-06-29 07:43:00,61.6,59.3,29.81,North,355,5.8,5.8,92,0.00,CLR,,0.18,WeatherDisplay:10.37,2013-06-29 12:43:00,
2013-06-29 07:48:00,61.7,59.4,29.81,NNE,17,4.6,4.6,92,0.00,CLR,,0.18,WeatherDisplay:10.37,2013-06-29 12:48:00,
2013-06-29 07:53:00,61.7,59.4,29.81,NNE,26,11.5,11.5,92,0.00,CLR,,0.18,WeatherDisplay:10.37,2013-06-29 12:53:00,
2013-06-29 07:58:00,61.8,59.1,29.81,North,360,5.8,5.8,91,0.00,CLR,,0.18,WeatherDisplay:10.37,2013-06-29 12:58:00,
2013-06-29 08:03:00,61.8,59.1,29.82,NNW,340,6.9,6.9,91,0.00,CLR,,0.18,WeatherDisplay:10.37,2013-06-29 13:03:00,
2013-06-29 08:08:00,61.9,59.2,29.82,NNE,15,6.9,0.0,91,0.00,CLR,,0.18,WeatherDisplay:10.37,2013-06-29 13:08:00,
2013-06-29 08:13:00,62.0,59.3,29.82,North,5,0.0,0.0,91,0.00,CLR,,0.18,WeatherDisplay:10.37,2013-06-29 13:13:00,
2013-06-29 08:18:00,62.1,59.4,29.83,North,5,1.2,1.2,91,0.00,CLR,,0.18,WeatherDisplay:10.37,2013-06-29 13:18:00,
2013-06-29 08:23:00,62.2,59.5,29.83,North,360,4.0,4.0,91,0.00,CLR,,0.18,WeatherDisplay:10.37,2013-06-29 13:23:00,
2013-06-29 08:28:00,62.1,59.4,29.83,NNW,328,7.0,7.0,91,0.00,CLR,,0.18,WeatherDisplay:10.37,2013-06-29 13:28:00,
2013-06-29 08:33:00,62.2,59.5,29.83,North,360,6.9,6.9,91,0.00,CLR,,0.18,WeatherDisplay:10.37,2013-06-29 13:33:00,
2013-06-29 08:38:00,62.1,59.4,29.83,NNW,336,6.9,6.9,91,0.00,CLR,,0.18,WeatherDisplay:10.37,2013-06-29 13:38:00,
2013-06-29 08:43:00,62.1,59.1,29.83,North,5,9.2,9.2,90,0.00,CLR,,0.18,WeatherDisplay:10.37,2013-06-29 13:43:00,
2013-06-29 08:48:00,62.2,59.2,29.83,NNE,15,5.8,5.8,90,0.00,CLR,,0.18,WeatherDisplay:10.37,2013-06-29 13:48:00,
2013-06-29 08:53:00,62.3,59.3,29.84,North,355,11.5,11.5,90,0.00,CLR,,0.18,WeatherDisplay:10.37,2013-06-29 13:53:00,
2013-06-29 08:58:00,62.4,59.1,29.84,NNE,15,6.9,6.9,89,0.00,CLR,,0.18,WeatherDisplay:10.37,2013-06-29 13:58:00,
2013-06-29 09:03:00,62.5,59.2,29.84,North,5,9.2,9.2,89,0.00,CLR,,0.18,WeatherDisplay:10.37,2013-06-29 14:03:00,
2013-06-29 09:08:00,62.7,59.7,29.84,North,355,0.0,0.0,90,0.00,CLR,,0.18,WeatherDisplay:10.37,2013-06-29 14:08:00,
2013-06-29 09:13:00,62.8,59.5,29.84,NNE,30,11.5,11.5,89,0.00,CLR,,0.18,WeatherDisplay:10.37,2013-06-29 14:13:00,
2013-06-29 09:18:00,62.9,59.6,29.84,NNW,338,4.6,4.6,89,0.00,CLR,,0.18,WeatherDisplay:10.37,2013-06-29 14:18:00,
2013-06-29 09:23:00,63.1,59.8,29.84,NNE,17,11.5,11.5,89,0.00,CLR,,0.18,WeatherDisplay:10.37,2013-06-29 14:23:00,
2013-06-29 09:28:00,63.3,60.0,29.84,North,5,3.5,3.5,89,0.00,CLR,,0.18,WeatherDisplay:10.37,2013-06-29 14:28:00,
2013-06-29 09:33:00,63.5,59.9,29.84,North,355,4.6,4.6,88,0.00,CLR,,0.18,WeatherDisplay:10.37,2013-06-29 14:33:00,
2013-06-29 09:38:00,63.7,60.1,29.84,NNE,21,6.9,6.9,88,0.00,CLR,,0.18,WeatherDisplay:10.37,2013-06-29 14:38:00,
2013-06-29 09:43:00,63.9,60.0,29.85,NNW,344,11.5,11.5,87,0.00,CLR,,0.18,WeatherDisplay:10.37,2013-06-29 14:43:00,
2013-06-29 09:48:00,64.0,59.7,29.85,North,349,10.4,10.4,86,0.00,CLR,,0.18,WeatherDisplay:10.37,2013-06-29 14:48:00,
2013-06-29 09:53:00,64.3,60.0,29.85,NNW,333,9.2,9.2,86,0.00,CLR,,0.18,WeatherDisplay:10.37,2013-06-29 14:53:00,
2013-06-29 09:58:00,64.5,60.2,29.85,NNW,346,10.4,10.4,86,0.00,CLR,,0.18,WeatherDisplay:10.37,2013-06-29 14:58:00,
2013-06-29 10:03:00,64.8,60.2,29.85,North,5,6.9,6.9,85,0.00,CLR,,0.18,WeatherDisplay:10.37,2013-06-29 15:03:00,
2013-06-29 10:08:00,65.1,60.1,29.85,NW,323,5.8,5.8,84,0.00,CLR,,0.18,WeatherDisplay:10.37,2013-06-29 15:08:00,
2013-06-29 10:13:00,65.5,60.2,29.85,North,5,3.5,3.5,83,0.00,CLR,,0.18,WeatherDisplay:10.37,2013-06-29 15:13:00,
2013-06-29 10:18:00,65.9,60.6,29.85,North,355,9.2,9.2,83,0.00,CLR,,0.18,WeatherDisplay:10.37,2013-06-29 15:18:00,
2013-06-29 10:23:00,66.4,60.4,29.85,North,350,10.4,10.4,81,0.00,CLR,,0.18,WeatherDisplay:10.37,2013-06-29 15:23:00,
2013-06-29 10:28:00,66.8,60.1,29.85,NNW,337,10.4,10.4,79,0.00,CLR,,0.18,WeatherDisplay:10.37,2013-06-29 15:28:00,
2013-06-29 10:33:00,67.0,59.9,29.85,NNW,336,6.9,6.9,78,0.00,CLR,,0.18,WeatherDisplay:10.37,2013-06-29 15:33:00,
2013-06-29 10:38:00,67.4,60.3,29.85,North,10,9.2,9.2,78,0.00,CLR,,0.18,WeatherDisplay:10.37,2013-06-29 15:38:00,
2013-06-29 10:43:00,68.0,60.5,29.85,North,360,6.9,6.9,77,0.00,CLR,,0.18,WeatherDisplay:10.37,2013-06-29 15:43:00,
2013-06-29 10:48:00,68.3,60.1,29.85,NNE,26,5.8,5.8,75,0.00,CLR,,0.18,WeatherDisplay:10.37,2013-06-29 15:48:00,
2013-06-29 10:53:00,68.6,60.0,29.86,NNE,16,4.6,4.6,74,0.00,CLR,,0.18,WeatherDisplay:10.37,2013-06-29 15:53:00,
2013-06-29 10:58:00,69.0,59.2,29.86,NNE,32,3.5,3.5,71,0.00,CLR,,0.18,WeatherDisplay:10.37,2013-06-29 15:58:00,
2013-06-29 11:03:00,69.7,59.5,29.86,NE,36,3.5,3.5,70,0.00,CLR,,0.18,WeatherDisplay:10.37,2013-06-29 16:03:00,
2013-06-29 11:08:00,69.8,59.2,29.86,NE,41,4.6,4.6,69,0.00,CLR,,0.18,WeatherDisplay:10.37,2013-06-29 16:08:00,
2013-06-29 11:13:00,69.5,58.5,29.86,North,5,4.6,4.6,68,0.00,CLR,,0.18,WeatherDisplay:10.37,2013-06-29 16:13:00,
2013-06-29 11:18:00,70.1,59.0,29.86,NNW,348,6.9,6.9,68,0.00,CLR,,0.18,WeatherDisplay:10.37,2013-06-29 16:18:00,
2013-06-29 11:23:00,70.8,59.3,29.86,North,351,2.3,2.3,67,0.00,CLR,,0.18,WeatherDisplay:10.37,2013-06-29 16:23:00,
2013-06-29 11:28:00,70.5,59.0,29.86,North,5,0.0,1.8,67,0.00,CLR,,0.18,WeatherDisplay:10.37,2013-06-29 16:28:00,
2013-06-29 11:33:00,69.7,57.4,29.86,NNE,24,10.4,10.4,65,0.00,CLR,,0.18,WeatherDisplay:10.37,2013-06-29 16:33:00,
2013-06-29 11:38:00,69.4,57.1,29.86,NE,38,10.4,10.4,65,0.00,CLR,,0.18,WeatherDisplay:10.37,2013-06-29 16:38:00,
2013-06-29 11:43:00,69.8,57.5,29.86,NW,310,3.5,3.5,65,0.00,CLR,,0.18,WeatherDisplay:10.37,2013-06-29 16:43:00,
2013-06-29 11:48:00,70.2,57.4,29.86,NNE,20,10.4,10.4,64,0.00,CLR,,0.18,WeatherDisplay:10.37,2013-06-29 16:48:00,
2013-06-29 11:53:00,70.2,57.4,29.86,North,11,11.5,11.5,64,0.00,CLR,,0.18,WeatherDisplay:10.37,2013-06-29 16:53:00,
2013-06-29 11:58:00,70.4,57.2,29.86,NE,54,10.4,10.4,63,0.00,CLR,,0.18,WeatherDisplay:10.37,2013-06-29 16:58:00,
2013-06-29 12:03:00,71.5,57.8,29.86,NNE,21,10.4,10.4,62,0.00,CLR,,0.18,WeatherDisplay:10.37,2013-06-29 17:03:00,
2013-06-29 12:08:00,71.7,58.0,29.86,North,360,11.5,11.5,62,0.00,CLR,,0.18,WeatherDisplay:10.37,2013-06-29 17:08:00,
2013-06-29 12:13:00,71.8,57.6,29.86,NNW,338,11.5,11.5,61,0.00,CLR,,0.18,WeatherDisplay:10.37,2013-06-29 17:13:00,
2013-06-29 12:18:00,71.4,56.8,29.86,North,355,11.5,11.5,60,0.00,CLR,,0.18,WeatherDisplay:10.37,2013-06-29 17:18:00,
2013-06-29 12:23:00,71.0,55.9,29.86,NE,35,1.2,1.2,59,0.00,CLR,,0.18,WeatherDisplay:10.37,2013-06-29 17:23:00,
2013-06-29 12:28:00,71.3,56.7,29.87,ENE,78,6.9,6.9,60,0.00,CLR,,0.18,WeatherDisplay:10.37,2013-06-29 17:28:00,
2013-06-29 12:33:00,72.2,57.5,29.87,NW,313,6.9,6.9,60,0.00,CLR,,0.18,WeatherDisplay:10.37,2013-06-29 17:33:00,
2013-06-29 12:38:00,72.7,57.5,29.87,NE,49,10.4,10.4,59,0.00,CLR,,0.18,WeatherDisplay:10.37,2013-06-29 17:38:00,
2013-06-29 12:43:00,73.0,57.8,29.87,North,360,2.3,2.3,59,0.00,CLR,,0.18,WeatherDisplay:10.37,2013-06-29 17:43:00,
2013-06-29 12:48:00,73.0,57.3,29.87,NW,325,11.5,11.5,58,0.00,CLR,,0.18,WeatherDisplay:10.37,2013-06-29 17:48:00,
2013-06-29 12:53:00,72.5,57.4,29.87,NNE,33,5.8,5.8,59,0.00,CLR,,0.18,WeatherDisplay:10.37,2013-06-29 17:53:00,
2013-06-29 12:58:00,72.1,57.0,29.87,NNW,341,2.3,2.3,59,0.00,CLR,,0.18,WeatherDisplay:10.37,2013-06-29 17:58:00,
2013-06-29 13:03:00,72.1,57.9,29.87,NNE,15,3.5,3.5,61,0.00,CLR,,0.18,WeatherDisplay:10.37,2013-06-29 18:03:00,
2013-06-29 13:09:00,72.4,57.3,29.87,NNW,342,5.8,5.8,59,0.00,CLR,,0.18,WeatherDisplay:10.37,2013-06-29 18:09:00,
2013-06-29 13:14:00,72.9,57.7,29.87,NNE,26,5.8,5.8,59,0.00,CLR,,0.18,WeatherDisplay:10.37,2013-06-29 18:14:00,
2013-06-29 13:19:00,73.1,57.9,29.87,North,360,15.0,15.0,59,0.00,CLR,,0.18,WeatherDisplay:10.37,2013-06-29 18:19:00,
2013-06-29 13:24:00,73.3,58.1,29.87,NNW,327,3.5,4.0,59,0.00,CLR,,0.18,WeatherDisplay:10.37,2013-06-29 18:24:00,
2013-06-29 13:29:00,73.4,57.2,29.86,NNW,333,6.9,6.9,57,0.00,CLR,,0.18,WeatherDisplay:10.37,2013-06-29 18:29:00,
2013-06-29 13:34:00,74.0,57.3,29.87,North,355,11.5,11.5,56,0.00,CLR,,0.18,WeatherDisplay:10.37,2013-06-29 18:34:00,
2013-06-29 13:39:00,74.3,57.6,29.87,North,349,4.6,4.6,56,0.00,CLR,,0.18,WeatherDisplay:10.37,2013-06-29 18:39:00,
2013-06-29 13:44:00,74.6,58.4,29.87,NNE,13,1.2,0.0,57,0.00,CLR,,0.18,WeatherDisplay:10.37,2013-06-29 18:44:00,
2013-06-29 13:49:00,75.2,56.9,29.87,North,350,11.0,11.0,53,0.00,CLR,,0.18,WeatherDisplay:10.37,2013-06-29 18:49:00,
2013-06-29 13:54:00,75.2,56.9,29.87,NNE,29,4.6,4.6,53,0.00,CLR,,0.18,WeatherDisplay:10.37,2013-06-29 18:54:00,
2013-06-29 13:59:00,75.7,56.8,29.86,NNE,30,4.6,4.6,52,0.00,CLR,,0.18,WeatherDisplay:10.37,2013-06-29 18:59:00,
2013-06-29 14:04:00,75.3,55.9,29.86,NNE,13,4.6,4.6,51,0.00,CLR,,0.18,WeatherDisplay:10.37,2013-06-29 19:04:00,
2013-06-29 14:09:00,74.9,56.6,29.86,NNE,17,6.9,6.9,53,0.00,CLR,,0.18,WeatherDisplay:10.37,2013-06-29 19:09:00,
2013-06-29 14:14:00,75.1,57.3,29.86,NNW,333,8.1,8.1,54,0.00,CLR,,0.18,WeatherDisplay:10.37,2013-06-29 19:14:00,
2013-06-29 14:19:00,75.3,57.5,29.87,North,355,4.6,4.6,54,0.00,CLR,,0.18,WeatherDisplay:10.37,2013-06-29 19:19:00,
2013-06-29 14:24:00,75.8,56.4,29.86,NNE,26,9.2,9.2,51,0.00,CLR,,0.18,WeatherDisplay:10.37,2013-06-29 19:24:00,
2013-06-29 14:29:00,76.2,57.3,29.86,NNW,342,0.0,0.0,52,0.00,CLR,,0.18,WeatherDisplay:10.37,2013-06-29 19:29:00,
2013-06-29 14:34:00,76.7,56.7,29.86,NNE,24,3.5,3.5,50,0.00,CLR,,0.18,WeatherDisplay:10.37,2013-06-29 19:34:00,
2013-06-29 14:39:00,76.6,55.4,29.87,NNE,30,3.5,3.5,48,0.00,CLR,,0.18,WeatherDisplay:10.37,2013-06-29 19:39:00,
2013-06-29 14:44:00,76.6,56.6,29.87,NNE,27,11.5,11.5,50,0.00,CLR,,0.18,WeatherDisplay:10.37,2013-06-29 19:44:00,
2013-06-29 14:49:00,76.0,56.6,29.87,NE,56,4.6,4.6,51,0.00,CLR,,0.18,WeatherDisplay:10.37,2013-06-29 19:49:00,
2013-06-29 14:54:00,75.4,56.0,29.87,NNE,17,6.9,6.9,51,0.00,CLR,,0.18,WeatherDisplay:10.37,2013-06-29 19:54:00,
2013-06-29 14:59:00,74.8,56.5,29.87,ENE,67,3.5,3.5,53,0.00,CLR,,0.18,WeatherDisplay:10.37,2013-06-29 19:59:00,
2013-06-29 15:04:00,74.6,57.4,29.87,North,360,1.0,1.0,55,0.00,CLR,,0.18,WeatherDisplay:10.37,2013-06-29 20:04:00,
2013-06-29 15:09:00,75.0,57.7,29.87,ENE,69,3.5,3.5,55,0.00,CLR,,0.18,WeatherDisplay:10.37,2013-06-29 20:09:00,
2013-06-29 15:14:00,75.4,55.5,29.88,North,355,6.9,6.9,50,0.00,CLR,,0.18,WeatherDisplay:10.37,2013-06-29 20:14:00,
2013-06-29 15:19:00,75.4,54.3,29.87,ENE,69,4.6,4.6,48,0.00,CLR,,0.18,WeatherDisplay:10.37,2013-06-29 20:19:00,
2013-06-29 15:24:00,75.0,54.5,29.88,NNE,28,9.2,9.2,49,0.00,CLR,,0.18,WeatherDisplay:10.37,2013-06-29 20:24:00,
2013-06-29 15:29:00,74.9,55.6,29.87,NNE,33,3.5,3.5,51,0.00,CLR,,0.18,WeatherDisplay:10.37,2013-06-29 20:29:00,
2013-06-29 15:34:00,75.0,56.2,29.87,NE,54,5.8,5.8,52,0.00,CLR,,0.18,WeatherDisplay:10.37,2013-06-29 20:34:00,
2013-06-29 15:39:00,75.5,56.1,29.87,NE,49,3.5,3.5,51,0.00,CLR,,0.18,WeatherDisplay:10.37,2013-06-29 20:39:00,
2013-06-29 15:44:00,75.7,56.8,29.87,NE,46,0.0,0.0,52,0.00,CLR,,0.18,WeatherDisplay:10.37,2013-06-29 20:44:00,
2013-06-29 15:49:00,75.7,55.7,29.87,North,355,6.9,6.9,50,0.00,CLR,,0.18,WeatherDisplay:10.37,2013-06-29 20:49:00,
2013-06-29 15:54:00,75.2,56.4,29.87,North,360,5.8,5.8,52,0.00,CLR,,0.18,WeatherDisplay:10.37,2013-06-29 20:54:00,
2013-06-29 15:59:00,74.9,56.6,29.87,NNE,32,3.5,0.0,53,0.00,CLR,,0.18,WeatherDisplay:10.37,2013-06-29 20:59:00,
2013-06-29 16:04:00,75.3,57.5,29.87,NNE,17,3.5,3.5,54,0.00,CLR,,0.18,WeatherDisplay:10.37,2013-06-29 21:04:00,
2013-06-29 16:09:00,76.1,57.2,29.87,North,360,6.9,6.9,52,0.00,CLR,,0.18,WeatherDisplay:10.37,2013-06-29 21:09:00,
2013-06-29 16:14:00,75.8,55.8,29.87,NE,42,5.8,5.8,50,0.00,CLR,,0.18,WeatherDisplay:10.37,2013-06-29 21:14:00,
2013-06-29 16:19:00,75.5,55.0,29.87,NNW,338,4.6,4.6,49,0.00,CLR,,0.18,WeatherDisplay:10.37,2013-06-29 21:19:00,
2013-06-29 16:24:00,75.0,54.5,29.88,NE,51,4.6,4.6,49,0.00,CLR,,0.18,WeatherDisplay:10.37,2013-06-29 21:24:00,
2013-06-29 16:29:00,75.3,55.4,29.88,North,5,0.0,0.2,50,0.00,CLR,,0.18,WeatherDisplay:10.37,2013-06-29 21:29:00,
2013-06-29 16:34:00,75.3,54.3,29.88,NNW,335,5.8,5.8,48,0.00,CLR,,0.18,WeatherDisplay:10.37,2013-06-29 21:34:00,
2013-06-29 16:39:00,75.4,54.9,29.88,NNE,26,5.8,5.8,49,0.00,CLR,,0.18,WeatherDisplay:10.37,2013-06-29 21:39:00,
2013-06-29 16:44:00,75.3,55.9,29.88,NNE,17,4.6,0.0,51,0.00,CLR,,0.18,WeatherDisplay:10.37,2013-06-29 21:44:00,
2013-06-29 16:49:00,75.5,55.0,29.88,NNE,24,12.7,12.7,49,0.00,CLR,,0.18,WeatherDisplay:10.37,2013-06-29 21:49:00,
2013-06-29 16:54:00,75.5,54.4,29.88,NNE,22,9.2,9.2,48,0.00,CLR,,0.18,WeatherDisplay:10.37,2013-06-29 21:54:00,
2013-06-29 16:59:00,75.9,54.8,29.88,NW,316,11.5,11.5,48,0.00,CLR,,0.18,WeatherDisplay:10.37,2013-06-29 21:59:00,
2013-06-29 17:04:00,76.3,55.7,29.89,NE,34,1.2,1.2,49,0.00,CLR,,0.18,WeatherDisplay:10.37,2013-06-29 22:04:00,
2013-06-29 17:09:00,76.7,56.1,29.89,NE,47,5.8,5.8,49,0.00,CLR,,0.18,WeatherDisplay:10.37,2013-06-29 22:09:00,
2013-06-29 17:14:00,76.4,54.7,29.89,East,86,10.4,10.4,47,0.00,CLR,,0.18,WeatherDisplay:10.37,2013-06-29 22:14:00,
2013-06-29 17:19:00,76.2,54.5,29.89,NE,38,7.0,7.0,47,0.00,CLR,,0.18,WeatherDisplay:10.37,2013-06-29 22:19:00,
2013-06-29 17:24:00,76.4,55.3,29.89,NE,46,10.4,10.4,48,0.00,CLR,,0.18,WeatherDisplay:10.37,2013-06-29 22:24:00,
2013-06-29 17:29:00,76.4,52.9,29.89,NE,42,10.4,10.4,44,0.00,CLR,,0.18,WeatherDisplay:10.37,2013-06-29 22:29:00,
2013-06-29 17:34:00,76.3,53.4,29.89,NNW,344,9.2,9.2,45,0.00,CLR,,0.18,WeatherDisplay:10.37,2013-06-29 22:34:00,
2013-06-29 17:39:00,76.0,52.5,29.89,NNW,327,10.4,10.4,44,0.00,CLR,,0.18,WeatherDisplay:10.37,2013-06-29 22:39:00,
2013-06-29 17:44:00,75.6,51.5,29.89,NNW,330,10.4,10.4,43,0.00,CLR,,0.18,WeatherDisplay:10.37,2013-06-29 22:44:00,
2013-06-29 17:49:00,75.6,53.4,29.89,ENE,64,6.9,6.9,46,0.00,CLR,,0.18,WeatherDisplay:10.37,2013-06-29 22:49:00,
2013-06-29 17:54:00,75.6,52.8,29.89,North,360,3.5,3.5,45,0.00,CLR,,0.18,WeatherDisplay:10.37,2013-06-29 22:54:00,
2013-06-29 17:59:00,75.7,52.8,29.89,NNE,17,4.6,4.6,45,0.00,CLR,,0.18,WeatherDisplay:10.37,2013-06-29 22:59:00,
2013-06-29 18:04:00,75.8,52.9,29.89,NNE,30,10.4,10.4,45,0.00,CLR,,0.18,WeatherDisplay:10.37,2013-06-29 23:04:00,
2013-06-29 18:09:00,75.7,54.0,29.89,North,5,10.4,10.4,47,0.00,CLR,,0.18,WeatherDisplay:10.37,2013-06-29 23:09:00,
2013-06-29 18:15:00,75.8,54.1,29.89,NE,56,5.8,5.8,47,0.00,CLR,,0.18,WeatherDisplay:10.37,2013-06-29 23:15:00,
2013-06-29 18:20:00,75.5,52.1,29.89,East,80,3.0,3.0,44,0.00,CLR,,0.18,WeatherDisplay:10.37,2013-06-29 23:20:00,
2013-06-29 18:25:00,74.9,50.9,29.89,NE,36,10.4,10.4,43,0.00,CLR,,0.18,WeatherDisplay:10.37,2013-06-29 23:25:00,
2013-06-29 18:30:00,74.6,51.9,29.89,North,9,3.5,3.5,45,0.00,CLR,,0.18,WeatherDisplay:10.37,2013-06-29 23:30:00,
2013-06-29 18:35:00,74.5,51.2,29.89,NNE,22,11.5,11.5,44,0.00,CLR,,0.18,WeatherDisplay:10.37,2013-06-29 23:35:00,
2013-06-29 18:40:00,74.3,51.0,29.90,NE,49,4.6,4.6,44,0.00,CLR,,0.18,WeatherDisplay:10.37,2013-06-29 23:40:00,
2013-06-29 18:45:00,74.3,51.6,29.90,ENE,72,2.3,2.3,45,0.00,CLR,,0.18,WeatherDisplay:10.37,2013-06-29 23:45:00,
2013-06-29 18:50:00,74.3,52.2,29.90,ENE,65,2.3,2.3,46,0.00,CLR,,0.18,WeatherDisplay:10.37,2013-06-29 23:50:00,
2013-06-29 18:55:00,74.5,52.9,29.90,East,94,3.5,3.5,47,0.00,CLR,,0.18,WeatherDisplay:10.37,2013-06-29 23:55:00,
2013-06-29 19:00:00,74.4,52.3,29.90,North,5,3.5,3.5,46,0.00,CLR,,0.18,WeatherDisplay:10.37,2013-06-30 00:00:00,
2013-06-29 19:05:00,74.1,51.4,29.90,ENE,57,3.5,3.5,45,0.00,CLR,,0.18,WeatherDisplay:10.37,2013-06-30 00:05:00,
2013-06-29 19:10:00,73.9,51.2,29.90,NNE,26,2.3,2.3,45,0.00,CLR,,0.18,WeatherDisplay:10.37,2013-06-30 00:10:00,
2013-06-29 19:15:00,74.0,52.5,29.91,NE,36,0.0,0.0,47,0.00,CLR,,0.18,WeatherDisplay:10.37,2013-06-30 00:15:00,
2013-06-29 19:20:00,73.9,52.4,29.91,NE,38,0.0,0.0,47,0.00,CLR,,0.18,WeatherDisplay:10.37,2013-06-30 00:20:00,
2013-06-29 19:25:00,73.9,52.4,29.91,ENE,60,3.5,3.5,47,0.00,CLR,,0.18,WeatherDisplay:10.37,2013-06-30 00:25:00,
2013-06-29 19:30:00,73.7,52.2,29.91,NNE,32,0.0,0.0,47,0.00,CLR,,0.18,WeatherDisplay:10.37,2013-06-30 00:30:00,
2013-06-29 19:35:00,73.5,52.6,29.91,North,360,3.5,3.5,48,0.00,CLR,,0.18,WeatherDisplay:10.37,2013-06-30 00:35:00,
2013-06-29 19:40:00,73.1,52.2,29.92,NNE,32,9.2,9.2,48,0.00,CLR,,0.18,WeatherDisplay:10.37,2013-06-30 00:40:00,
2013-06-29 19:45:00,72.8,52.0,29.92,SE,129,6.9,6.9,48,0.00,CLR,,0.18,WeatherDisplay:10.37,2013-06-30 00:45:00,
2013-06-29 19:50:00,72.5,51.7,29.92,North,360,3.5,3.5,48,0.00,CLR,,0.18,WeatherDisplay:10.37,2013-06-30 00:50:00,
2013-06-29 19:55:00,72.5,51.7,29.92,East,101,3.5,3.5,48,0.00,CLR,,0.18,WeatherDisplay:10.37,2013-06-30 00:55:00,
2013-06-29 20:00:00,72.3,52.1,29.92,NNE,19,5.8,5.8,49,0.00,CLR,,0.18,WeatherDisplay:10.37,2013-06-30 01:00:00,
2013-06-29 20:05:00,72.0,51.8,29.92,East,87,2.3,2.3,49,0.00,CLR,,0.18,WeatherDisplay:10.37,2013-06-30 01:05:00,
2013-06-29 20:10:00,71.6,51.4,29.92,NE,40,1.2,0.0,49,0.00,CLR,,0.18,WeatherDisplay:10.37,2013-06-30 01:10:00,
2013-06-29 20:15:00,71.4,51.8,29.92,North,360,4.6,4.6,50,0.00,CLR,,0.18,WeatherDisplay:10.37,2013-06-30 01:15:00,
2013-06-29 20:20:00,71.3,51.7,29.92,NNE,25,2.3,2.3,50,0.00,CLR,,0.18,WeatherDisplay:10.37,2013-06-30 01:20:00,
2013-06-29 20:25:00,71.1,52.0,29.92,NNE,21,2.3,0.0,51,0.00,CLR,,0.18,WeatherDisplay:10.37,2013-06-30 01:25:00,
2013-06-29 20:30:00,70.8,51.8,29.93,East,83,0.0,0.2,51,0.00,CLR,,0.18,WeatherDisplay:10.37,2013-06-30 01:30:00,
2013-06-29 20:35:00,70.5,51.0,29.93,NNE,31,2.3,2.3,50,0.00,CLR,,0.18,WeatherDisplay:10.37,2013-06-30 01:35:00,
2013-06-29 20:40:00,70.3,50.8,29.93,ENE,57,3.0,3.0,50,0.00,CLR,,0.18,WeatherDisplay:10.37,2013-06-30 01:40:00,
2013-06-29 20:45:00,70.1,50.6,29.93,NE,53,3.5,3.5,50,0.00,CLR,,0.18,WeatherDisplay:10.37,2013-06-30 01:45:00,
2013-06-29 20:50:00,69.9,50.9,29.93,North,5,6.0,6.0,51,0.00,CLR,,0.18,WeatherDisplay:10.37,2013-06-30 01:50:00,
2013-06-29 20:55:00,69.8,50.9,29.94,North,355,2.3,2.3,51,0.00,CLR,,0.18,WeatherDisplay:10.37,2013-06-30 01:55:00,
2013-06-29 21:00:00,69.6,51.2,29.93,ENE,57,0.0,0.0,52,0.00,CLR,,0.18,WeatherDisplay:10.37,2013-06-30 02:00:00,
2013-06-29 21:05:00,69.4,51.0,29.93,North,355,3.5,3.5,52,0.00,CLR,,0.18,WeatherDisplay:10.37,2013-06-30 02:05:00,
2013-06-29 21:10:00,69.4,51.0,29.94,NNE,15,4.6,4.6,52,0.00,CLR,,0.18,WeatherDisplay:10.37,2013-06-30 02:10:00,
2013-06-29 21:15:00,69.2,51.3,29.94,East,81,0.0,0.0,53,0.00,CLR,,0.18,WeatherDisplay:10.37,2013-06-30 02:15:00,
2013-06-29 21:20:00,69.0,51.2,29.94,NNE,32,0.0,0.0,53,0.00,CLR,,0.18,WeatherDisplay:10.37,2013-06-30 02:20:00,
2013-06-29 21:25:00,68.8,51.5,29.94,NNE,28,1.2,0.0,54,0.00,CLR,,0.18,WeatherDisplay:10.37,2013-06-30 02:25:00,
2013-06-29 21:30:00,68.6,51.3,29.94,NNE,23,0.0,0.2,54,0.00,CLR,,0.18,WeatherDisplay:10.37,2013-06-30 02:30:00,
2013-06-29 21:35:00,68.4,50.6,29.95,North,360,3.5,0.0,53,0.00,CLR,,0.18,WeatherDisplay:10.37,2013-06-30 02:35:00,
2013-06-29 21:40:00,68.3,50.5,29.95,NNE,19,0.0,0.0,53,0.00,CLR,,0.18,WeatherDisplay:10.37,2013-06-30 02:40:00,
2013-06-29 21:45:00,68.0,50.2,29.95,NNE,18,0.0,0.0,53,0.00,CLR,,0.18,WeatherDisplay:10.37,2013-06-30 02:45:00,
2013-06-29 21:50:00,67.8,50.0,29.95,North,355,1.2,0.0,53,0.00,CLR,,0.18,WeatherDisplay:10.37,2013-06-30 02:50:00,
2013-06-29 21:55:00,67.7,49.9,29.95,NNE,33,0.0,0.0,53,0.00,CLR,,0.18,WeatherDisplay:10.37,2013-06-30 02:55:00,
2013-06-29 22:00:00,67.5,49.8,29.95,North,5,0.0,0.8,53,0.00,CLR,,0.18,WeatherDisplay:10.37,2013-06-30 03:00:00,
2013-06-29 22:05:00,67.4,49.7,29.95,NE,40,3.5,0.0,53,0.00,CLR,,0.18,WeatherDisplay:10.37,2013-06-30 03:05:00,
2013-06-29 22:10:00,67.4,49.7,29.95,NNE,30,0.0,0.0,53,0.00,CLR,,0.18,WeatherDisplay:10.37,2013-06-30 03:10:00,
2013-06-29 22:15:00,67.2,49.5,29.95,ENE,69,0.0,0.0,53,0.00,CLR,,0.18,WeatherDisplay:10.37,2013-06-30 03:15:00,
2013-06-29 22:20:00,67.0,49.8,29.96,NNE,33,2.3,2.3,54,0.00,CLR,,0.18,WeatherDisplay:10.37,2013-06-30 03:20:00,
2013-06-29 22:25:00,66.9,49.7,29.96,NE,40,0.0,0.0,54,0.00,CLR,,0.18,WeatherDisplay:10.37,2013-06-30 03:25:00,
2013-06-29 22:30:00,66.7,50.0,29.96,East,85,0.0,0.0,55,0.00,CLR,,0.18,WeatherDisplay:10.37,2013-06-30 03:30:00,
2013-06-29 22:35:00,66.5,49.8,29.96,ENE,78,0.0,0.0,55,0.00,CLR,,0.18,WeatherDisplay:10.37,2013-06-30 03:35:00,
2013-06-29 22:40:00,66.3,50.1,29.96,East,87,0.0,0.0,56,0.00,CLR,,0.18,WeatherDisplay:10.37,2013-06-30 03:40:00,
2013-06-29 22:45:00,66.2,50.5,29.96,East,81,0.0,0.0,57,0.00,CLR,,0.18,WeatherDisplay:10.37,2013-06-30 03:45:00,
2013-06-29 22:51:00,65.9,50.2,29.96,East,81,0.0,0.0,57,0.00,CLR,,0.18,WeatherDisplay:10.37,2013-06-30 03:51:00,
2013-06-29 22:56:00,65.6,50.4,29.96,East,81,0.0,0.0,58,0.00,CLR,,0.18,WeatherDisplay:10.37,2013-06-30 03:56:00,
2013-06-29 23:01:00,65.3,50.6,29.96,East,80,0.0,0.0,59,0.00,CLR,,0.18,WeatherDisplay:10.37,2013-06-30 04:01:00,
2013-06-29 23:02:00,65.2,50.5,29.96,East,81,0.0,0.0,59,0.00,CLR,,0.18,WeatherDisplay:10.37,2013-06-30 04:02:00,
2013-06-29 23:07:00,64.9,50.7,29.96,East,80,0.0,0.0,60,0.00,CLR,,0.18,WeatherDisplay:10.37,2013-06-30 04:07:00,
2013-06-29 23:12:00,64.7,50.9,29.96,East,81,0.0,0.0,61,0.00,CLR,,0.18,WeatherDisplay:10.37,2013-06-30 04:12:00,
2013-06-29 23:17:00,64.5,50.7,29.96,East,81,0.0,0.0,61,0.00,CLR,,0.18,WeatherDisplay:10.37,2013-06-30 04:17:00,
2013-06-29 23:22:00,64.2,50.9,29.96,East,81,0.0,0.0,62,0.00,CLR,,0.18,WeatherDisplay:10.37,2013-06-30 04:22:00,
2013-06-29 23:27:00,64.0,50.7,29.96,East,81,0.0,0.0,62,0.00,CLR,,0.18,WeatherDisplay:10.37,2013-06-30 04:27:00,
2013-06-29 23:32:00,63.9,51.1,29.96,East,81,0.0,0.0,63,0.00,CLR,,0.18,WeatherDisplay:10.37,2013-06-30 04:32:00,
2013-06-29 23:37:00,63.6,51.2,29.96,East,81,0.0,0.0,64,0.00,CLR,,0.18,WeatherDisplay:10.37,2013-06-30 04:37:00,
2013-06-29 23:42:00,63.4,51.4,29.97,East,81,0.0,0.0,65,0.00,CLR,,0.18,WeatherDisplay:10.37,2013-06-30 04:42:00,
2013-06-29 23:47:00,63.3,51.3,29.97,East,80,0.0,0.0,65,0.00,CLR,,0.18,WeatherDisplay:10.37,2013-06-30 04:47:00,
2013-06-29 23:52:00,63.1,51.6,29.97,East,81,0.0,0.0,66,0.00,CLR,,0.18,WeatherDisplay:10.37,2013-06-30 04:52:00,
2013-06-29 23:57:00,62.7,51.2,29.97,East,81,0.0,0.0,66,0.00,CLR,,0.18,WeatherDisplay:10.37,2013-06-30 04:57:00,